Time;durP1;ratioP1;P1;durP2;ratioP2;P2;SDS_P1;SDS_P2;PMS_P1;PMS_P2;Temp;Humidity;BMP_temperature;BMP_pressure;BME280_temperature;BME280_humidity;BME280_pressure;Samples;Min_cycle;Max_cycle;Signal;HPM_P1;HPM_P2
2022/08/11 00:00:42;;;;;;;46.27;43.50;;;16.90;92.80;;;;;;4991661;28;20222;-72
2022/08/11 00:03:10;;;;;;;42.95;40.35;;;16.80;93.10;;;;;;4990830;28;20814;-72
2022/08/11 00:05:45;;;;;;;36.13;34.30;;;16.80;93.40;;;;;;4991485;28;20201;-72
2022/08/11 00:08:24;;;;;;;32.37;30.63;;;16.80;93.70;;;;;;4990384;28;20222;-72
2022/08/11 00:10:57;;;;;;;29.10;27.50;;;16.70;94.10;;;;;;4991702;28;20557;-73
2022/08/11 00:13:41;;;;;;;22.83;21.73;;;16.70;94.50;;;;;;4991314;28;20188;-72
2022/08/11 00:16:12;;;;;;;11.37;10.77;;;16.50;95.10;;;;;;4991246;28;20208;-73
2022/08/11 00:18:47;;;;;;;8.30;7.73;;;16.50;96.00;;;;;;4988948;28;20192;-72
2022/08/11 00:21:14;;;;;;;9.03;8.53;;;16.50;96.40;;;;;;4991417;28;20191;-72
2022/08/11 00:23:44;;;;;;;9.70;9.20;;;16.50;97.10;;;;;;4991342;28;20875;-72
2022/08/11 00:26:12;;;;;;;7.87;7.37;;;16.50;97.40;;;;;;4983526;28;20338;-72
2022/08/11 00:28:38;;;;;;;8.00;7.50;;;16.50;97.50;;;;;;5002972;28;20782;-73
2022/08/11 00:31:10;;;;;;;7.23;6.80;;;16.50;97.60;;;;;;5010489;28;20568;-73
2022/08/11 00:33:42;;;;;;;8.47;7.67;;;16.50;97.60;;;;;;5010298;28;20183;-73
2022/08/11 00:36:10;;;;;;;8.27;7.73;;;16.40;97.90;;;;;;5010032;28;20614;-73
2022/08/11 00:38:39;;;;;;;14.43;13.37;;;16.30;98.80;;;;;;4994828;28;20185;-73
2022/08/11 00:41:16;;;;;;;11.47;10.83;;;16.30;99.60;;;;;;4991448;28;20181;-73
2022/08/11 00:44:04;;;;;;;24.63;23.40;;;16.20;99.90;;;;;;4991229;28;20243;-73
2022/08/11 00:46:55;;;;;;;23.00;21.90;;;16.20;99.90;;;;;;4989388;28;20279;-73
2022/08/11 00:49:59;;;;;;;30.30;28.10;;;16.10;99.90;;;;;;4971048;28;20191;-73
2022/08/11 00:52:28;;;;;;;23.43;22.23;;;16.00;99.90;;;;;;4971090;28;20715;-73
2022/08/11 00:55:14;;;;;;;14.33;13.63;;;15.90;99.90;;;;;;4971112;28;20669;-73
2022/08/11 00:58:19;;;;;;;11.90;11.20;;;15.90;99.90;;;;;;4975563;28;20181;-73
2022/08/11 01:01:09;;;;;;;12.60;11.90;;;15.90;99.90;;;;;;4990040;28;20868;-73
2022/08/11 01:04:10;;;;;;;12.77;11.90;;;15.90;99.90;;;;;;4989804;28;20205;-73
2022/08/11 01:07:09;;;;;;;11.27;10.57;;;15.80;99.90;;;;;;4989149;28;20204;-73
2022/08/11 01:10:21;;;;;;;12.50;11.27;;;15.80;99.90;;;;;;4971064;28;20181;-73
2022/08/11 01:13:31;;;;;;;11.37;10.67;;;15.90;99.90;;;;;;4995451;28;20203;-73
2022/08/11 01:16:30;;;;;;;12.97;12.27;;;15.90;99.90;;;;;;4968500;28;20205;-73
2022/08/11 01:19:13;;;;;;;13.77;12.77;;;15.80;99.90;;;;;;4967694;28;20255;-73
2022/08/11 01:21:45;;;;;;;12.10;11.37;;;15.70;99.90;;;;;;4989125;28;20255;-72
2022/08/11 01:24:20;;;;;;;35.40;33.37;;;15.60;99.90;;;;;;4971094;28;20212;-73
2022/08/11 01:26:59;;;;;;;24.40;23.00;;;15.70;99.90;;;;;;4970088;28;20216;-73
2022/08/11 01:30:03;;;;;;;13.23;12.40;;;15.60;99.90;;;;;;4988504;28;20180;-73
2022/08/11 01:33:07;;;;;;;35.47;33.57;;;15.60;99.90;;;;;;4990097;28;20219;-72
2022/08/11 01:35:54;;;;;;;75.27;71.40;;;15.50;99.90;;;;;;4989919;28;20208;-72
2022/08/11 01:38:34;;;;;;;81.67;77.40;;;15.40;99.90;;;;;;5062506;23;20234;-74
2022/08/11 01:41:13;;;;;;;68.53;65.10;;;15.40;99.90;;;;;;5052255;28;20252;-73
2022/08/11 01:47:49;;;;;;;27.83;26.33;;;15.30;99.90;;;;;;5051242;28;20221;-74
2022/08/11 01:50:15;;;;;;;37.73;35.77;;;15.40;99.90;;;;;;5032119;28;20655;-74
2022/08/11 01:53:07;;;;;;;48.33;45.87;;;15.40;99.90;;;;;;5032311;28;20183;-74
2022/08/11 01:55:44;;;;;;;47.80;45.20;;;15.40;99.90;;;;;;5009564;28;20187;-74
2022/08/11 01:58:16;;;;;;;18.80;17.53;;;15.20;99.90;;;;;;5039245;28;20247;-74
2022/08/11 02:01:08;;;;;;;12.67;12.03;;;15.10;99.90;;;;;;5052004;28;20592;-74
2022/08/11 02:03:43;;;;;;;8.90;8.30;;;15.00;99.90;;;;;;5050903;28;20210;-74
2022/08/11 02:06:55;;;;;;;8.63;8.03;;;15.00;99.90;;;;;;5051399;28;20181;-74
2022/08/11 02:09:47;;;;;;;9.40;8.80;;;15.00;99.90;;;;;;5050988;28;20185;-73
2022/08/11 02:12:53;;;;;;;13.60;12.73;;;15.00;99.90;;;;;;5049606;28;20185;-74
2022/08/11 02:15:43;;;;;;;16.87;15.90;;;14.80;99.90;;;;;;5051583;28;20186;-76
2022/08/11 02:24:56;;;;;;;194.97;184.40;;;14.60;99.90;;;;;;5053636;28;20206;-73
2022/08/11 02:27:26;;;;;;;127.20;120.53;;;14.40;99.90;;;;;;5050591;28;20217;-73
2022/08/11 02:30:05;;;;;;;81.23;76.93;;;14.30;99.90;;;;;;5051194;28;20178;-73
2022/08/11 02:33:21;;;;;;;50.37;47.63;;;14.20;99.90;;;;;;5050247;28;20272;-74
2022/08/11 02:35:59;;;;;;;33.23;31.50;;;14.20;99.90;;;;;;5051261;28;20183;-73
2022/08/11 02:39:00;;;;;;;50.27;47.13;;;14.40;99.90;;;;;;5049822;28;20268;-73
2022/08/11 02:44:51;;;;;;;47.90;45.33;;;14.50;99.90;;;;;;5051067;28;20206;-74
2022/08/11 02:47:38;;;;;;;52.90;50.00;;;14.50;99.90;;;;;;5050173;28;20202;-73
2022/08/11 02:50:21;;;;;;;62.07;58.67;;;14.50;99.90;;;;;;5049738;28;20182;-74
2022/08/11 02:53:04;;;;;;;82.53;78.03;;;14.50;99.90;;;;;;5050002;28;20182;-74
2022/08/11 02:55:51;;;;;;;79.17;75.07;;;14.40;99.90;;;;;;5050016;28;20269;-74
2022/08/11 02:58:39;;;;;;;98.07;92.90;;;14.40;99.90;;;;;;5048535;28;20194;-73
2022/08/11 03:01:32;;;;;;;76.93;72.70;;;14.30;99.90;;;;;;5050966;28;20182;-74
2022/08/11 03:04:09;;;;;;;53.50;50.70;;;14.30;99.90;;;;;;5050156;28;20210;-74
2022/08/11 03:06:49;;;;;;;52.13;49.50;;;14.20;99.90;;;;;;5050879;28;20198;-73
2022/08/11 03:09:39;;;;;;;47.33;44.87;;;14.10;99.90;;;;;;5046169;28;20221;-76
2022/08/11 03:19:00;;;;;;;32.27;30.60;;;14.00;99.90;;;;;;5049228;28;20205;-76
2022/08/11 03:21:50;;;;;;;34.33;32.30;;;14.00;99.90;;;;;;5050633;28;20186;-74
2022/08/11 03:24:40;;;;;;;36.77;34.63;;;14.00;99.90;;;;;;5054427;28;20263;-74
2022/08/11 03:27:18;;;;;;;38.50;36.30;;;13.90;99.90;;;;;;5025279;28;20305;-75
2022/08/11 03:29:51;;;;;;;33.30;31.60;;;13.90;99.90;;;;;;5053573;28;20182;-75
2022/08/11 03:32:44;;;;;;;33.43;31.43;;;13.80;99.90;;;;;;5054481;28;20198;-74
2022/08/11 03:35:16;;;;;;;36.97;34.40;;;13.80;99.90;;;;;;5087422;28;20190;-74
2022/08/11 03:38:01;;;;;;;31.90;30.20;;;13.80;99.90;;;;;;5053131;28;20308;-74
2022/08/11 03:43:41;;;;;;;24.30;22.50;;;13.80;99.90;;;;;;5053766;28;20262;-74
2022/08/11 03:46:13;;;;;;;20.50;19.37;;;13.80;99.90;;;;;;5053384;28;20245;-74
2022/08/11 03:48:53;;;;;;;18.87;17.83;;;13.80;99.90;;;;;;5052391;28;20269;-76
2022/08/11 03:51:28;;;;;;;16.13;15.13;;;13.70;99.90;;;;;;5053727;28;20190;-75
2022/08/11 03:54:21;;;;;;;19.37;18.33;;;13.70;99.90;;;;;;5047076;28;20209;-74
2022/08/11 03:57:17;;;;;;;18.00;16.97;;;13.60;99.90;;;;;;5034148;28;20219;-75
2022/08/11 04:00:22;;;;;;;18.07;16.90;;;13.50;99.90;;;;;;5052318;28;20236;-76
2022/08/11 04:03:06;;;;;;;23.83;22.57;;;13.50;99.90;;;;;;5053473;28;20662;-75
2022/08/11 04:06:23;;;;;;;29.03;27.40;;;13.40;99.90;;;;;;5052580;28;20265;-74
2022/08/11 04:09:26;;;;;;;34.27;32.30;;;13.40;99.90;;;;;;5010165;28;20180;-74
2022/08/11 04:12:23;;;;;;;36.47;34.20;;;13.40;99.90;;;;;;4962809;28;20218;-74
2022/08/11 04:18:16;;;;;;;30.60;28.90;;;13.50;99.90;;;;;;5052852;28;20303;-75
2022/08/11 04:21:24;;;;;;;40.77;38.33;;;13.40;99.90;;;;;;5052350;28;20193;-75
2022/08/11 04:24:35;;;;;;;36.17;34.23;;;13.40;99.90;;;;;;5043409;28;20217;-75
2022/08/11 04:27:16;;;;;;;44.90;42.37;;;13.30;99.90;;;;;;5024161;28;20202;-74
2022/08/11 04:30:03;;;;;;;34.07;31.90;;;13.30;99.90;;;;;;5068847;28;20189;-75
2022/08/11 04:32:51;;;;;;;42.20;39.77;;;13.30;99.90;;;;;;5067805;28;20209;-74
2022/08/11 04:35:42;;;;;;;31.23;29.50;;;13.30;99.90;;;;;;5051188;28;20190;-74
2022/08/11 04:38:32;;;;;;;41.63;39.43;;;13.30;99.90;;;;;;5051623;28;20225;-76
2022/08/11 04:41:26;;;;;;;46.80;44.17;;;13.30;99.90;;;;;;5053465;28;20187;-75
2022/08/11 04:44:30;;;;;;;52.17;49.20;;;13.50;99.90;;;;;;5054264;28;20213;-81
2022/08/11 05:02:44;;;;;;;42.07;39.37;;;14.00;99.90;;;;;;5052829;28;20188;-78
2022/08/11 05:05:30;;;;;;;30.40;28.10;;;14.20;99.90;;;;;;5051493;28;20300;-78
2022/08/11 05:08:18;;;;;;;43.60;40.97;;;14.30;99.90;;;;;;5051074;28;20206;-77
2022/08/11 05:11:17;;;;;;;444.07;418.73;;;14.60;99.90;;;;;;5068128;28;20177;-77
2022/08/11 05:37:03;;;;;;;10.57;9.77;;;19.40;99.90;;;;;;5074256;28;20252;-76
2022/08/11 05:56:48;;;;;;;9.40;8.90;;;21.70;99.90;;;;;;5080193;28;20240;-75
2022/08/11 05:59:17;;;;;;;12.23;11.30;;;22.10;99.30;;;;;;5073224;28;20653;-76
2022/08/11 06:01:44;;;;;;;11.18;10.27;;;22.80;97.90;;;;;;5071424;28;20230;-76
2022/08/11 06:04:19;;;;;;;11.82;10.85;;;22.90;96.60;;;;;;5072534;28;20256;-76
2022/08/11 06:06:53;;;;;;;13.80;12.48;;;23.10;95.80;;;;;;5072869;28;20197;-76
2022/08/11 06:09:45;;;;;;;14.57;13.07;;;23.40;95.30;;;;;;5073307;28;20177;-77
2022/08/11 06:12:36;;;;;;;11.30;10.02;;;23.70;94.00;;;;;;5077191;28;20174;-77
2022/08/11 06:15:12;;;;;;;12.50;11.50;;;24.10;93.40;;;;;;5074935;28;20265;-77
2022/08/11 06:17:46;;;;;;;13.45;12.45;;;24.50;91.70;;;;;;5088693;28;20284;-77
2022/08/11 06:20:13;;;;;;;19.30;17.90;;;24.70;91.00;;;;;;5073461;28;20187;-77
2022/08/11 06:22:44;;;;;;;23.95;22.45;;;24.90;90.20;;;;;;5080489;28;20200;-77
2022/08/11 06:25:11;;;;;;;23.70;22.08;;;25.30;90.10;;;;;;5075263;28;20217;-77
2022/08/11 06:27:39;;;;;;;23.05;21.85;;;25.30;87.30;;;;;;5088138;28;20208;-77
2022/08/11 06:30:12;;;;;;;20.98;19.77;;;25.60;86.90;;;;;;5071764;28;20188;-77
2022/08/11 06:32:42;;;;;;;18.23;16.83;;;25.80;83.90;;;;;;5073713;28;20181;-77
2022/08/11 06:35:37;;;;;;;18.13;16.83;;;25.80;84.60;;;;;;5072364;28;20637;-77
2022/08/11 06:38:29;;;;;;;15.52;14.65;;;26.40;81.60;;;;;;5086613;28;20263;-76
2022/08/11 06:44:09;;;;;;;12.38;11.25;;;26.50;79.60;;;;;;5071338;28;20213;-77
2022/08/11 06:46:38;;;;;;;8.63;7.75;;;26.70;76.20;;;;;;5069689;28;20539;-77
2022/08/11 06:51:10;;;;;;;6.90;6.50;;;27.00;74.00;;;;;;5070811;28;20177;-77
2022/08/11 06:51:55;;;;;;;7.53;7.05;;;27.20;72.70;;;;;;5071164;28;20223;-77
2022/08/11 06:54:22;;;;;;;9.13;8.18;;;27.20;72.80;;;;;;5070248;28;20205;-76
2022/08/11 07:02:27;;;;;;;17.13;16.15;;;28.20;69.20;;;;;;5071132;28;20276;-76
2022/08/11 07:05:00;;;;;;;15.35;14.10;;;28.40;66.70;;;;;;5071190;28;20216;-77
2022/08/11 07:16:29;;;;;;;10.23;9.52;;;28.70;63.50;;;;;;5073452;28;20193;-77
2022/08/11 07:30:12;;;;;;;7.10;6.63;;;29.40;61.60;;;;;;5071402;28;20178;-77
2022/08/11 07:32:49;;;;;;;8.60;8.07;;;29.60;61.00;;;;;;5073763;28;20535;-77
2022/08/11 07:35:19;;;;;;;7.32;6.57;;;29.60;60.60;;;;;;5073584;28;20658;-77
2022/08/11 07:37:52;;;;;;;8.98;8.40;;;29.50;60.50;;;;;;5093147;23;20222;-79
2022/08/11 07:40:22;;;;;;;9.80;9.00;;;29.60;60.30;;;;;;5095126;28;20184;-80
2022/08/11 07:42:51;;;;;;;9.07;8.32;;;29.60;59.80;;;;;;5095885;28;20186;-79
2022/08/11 07:53:36;;;;;;;10.80;10.20;;;30.00;58.20;;;;;;5082111;28;20207;-80
2022/08/11 07:56:06;;;;;;;5.85;5.45;;;29.60;58.20;;;;;;5079671;28;20238;-79
2022/08/11 08:18:06;;;;;;;12.98;12.38;;;27.00;60.90;;;;;;5085616;28;20197;-79
2022/08/11 08:20:37;;;;;;;11.05;10.35;;;27.30;60.20;;;;;;5081036;28;20174;-79
2022/08/11 08:23:04;;;;;;;11.35;10.57;;;27.00;59.80;;;;;;5080715;28;20210;-80
2022/08/11 08:25:37;;;;;;;13.10;12.40;;;27.10;60.00;;;;;;5082900;28;20174;-80
2022/08/11 08:28:10;;;;;;;12.25;11.43;;;27.20;60.20;;;;;;5082451;28;20202;-79
2022/08/11 08:30:46;;;;;;;11.60;11.00;;;27.10;59.30;;;;;;5084117;28;20217;-80
2022/08/11 08:33:17;;;;;;;14.32;13.30;;;27.20;59.70;;;;;;5083520;28;20196;-79
2022/08/11 08:35:44;;;;;;;9.35;8.73;;;27.70;59.80;;;;;;5083958;28;20252;-80
2022/08/11 08:38:11;;;;;;;8.68;8.18;;;28.10;58.60;;;;;;5082034;28;20235;-79
2022/08/11 08:40:40;;;;;;;6.43;6.13;;;27.90;58.00;;;;;;5083707;28;20186;-79
2022/08/11 08:43:10;;;;;;;7.85;7.40;;;27.90;57.20;;;;;;5082377;28;20446;-79
2022/08/11 08:45:38;;;;;;;7.57;7.03;;;27.80;57.90;;;;;;5083642;28;20235;-78
2022/08/11 08:48:14;;;;;;;8.68;7.85;;;27.80;58.30;;;;;;5081377;28;20201;-79
2022/08/11 08:53:53;;;;;;;5.97;5.43;;;28.70;57.10;;;;;;5073693;28;20676;-79
2022/08/11 08:56:26;;;;;;;6.05;5.55;;;29.00;55.40;;;;;;5082607;28;20190;-79
2022/08/11 08:58:53;;;;;;;5.65;5.22;;;28.70;55.60;;;;;;5082660;28;20209;-79
2022/08/11 09:01:21;;;;;;;7.50;6.82;;;28.40;55.30;;;;;;5081879;28;20261;-80
2022/08/11 09:03:48;;;;;;;7.03;6.63;;;28.10;55.80;;;;;;5081446;28;20718;-79
2022/08/11 09:06:16;;;;;;;7.53;7.07;;;28.00;55.90;;;;;;5082612;28;20173;-80
2022/08/11 09:08:43;;;;;;;7.20;6.65;;;27.80;55.60;;;;;;5081611;28;20206;-79
2022/08/11 09:13:55;;;;;;;7.03;6.53;;;28.20;54.40;;;;;;5083527;28;20433;-79
2022/08/11 09:16:23;;;;;;;6.35;5.95;;;27.80;54.90;;;;;;5093995;28;20174;-79
2022/08/11 09:18:50;;;;;;;7.47;7.03;;;28.00;54.50;;;;;;5091435;28;20678;-80
2022/08/11 09:21:22;;;;;;;7.28;6.88;;;27.90;54.30;;;;;;5089375;28;20177;-79
2022/08/11 09:29:22;;;;;;;5.47;5.18;;;28.20;53.70;;;;;;5083814;28;20249;-80
2022/08/11 09:31:49;;;;;;;7.00;5.80;;;28.90;52.90;;;;;;5081836;28;20556;-81
2022/08/11 09:34:15;;;;;;;6.35;5.95;;;29.30;52.50;;;;;;5082704;28;20207;-79
2022/08/11 09:42:19;;;;;;;10.65;9.95;;;29.80;50.70;;;;;;5081509;28;20177;-78
2022/08/11 09:44:48;;;;;;;7.93;7.50;;;29.30;51.30;;;;;;5084940;28;20209;-78
2022/08/11 09:47:23;;;;;;;7.63;7.22;;;29.00;51.30;;;;;;5079719;28;20225;-79
2022/08/11 09:50:00;;;;;;;9.80;9.25;;;29.10;52.40;;;;;;5082050;28;20212;-79
2022/08/11 09:52:27;;;;;;;26.67;25.38;;;29.50;51.50;;;;;;5081183;28;20182;-78
2022/08/11 09:54:54;;;;;;;23.88;22.50;;;29.50;50.20;;;;;;5081397;28;20177;-79
2022/08/11 10:00:11;;;;;;;20.15;19.23;;;29.20;50.30;;;;;;5086952;28;20193;-79
2022/08/11 10:02:45;;;;;;;13.60;12.85;;;29.10;50.30;;;;;;5085038;28;20212;-79
2022/08/11 10:08:01;;;;;;;19.50;18.60;;;29.50;50.60;;;;;;5079893;28;20201;-79
2022/08/11 10:10:28;;;;;;;55.08;52.40;;;29.90;50.30;;;;;;5079378;28;20173;-79
2022/08/11 10:13:03;;;;;;;101.78;96.53;;;30.50;48.90;;;;;;5080627;28;20190;-80
2022/08/11 10:15:33;;;;;;;98.45;93.85;;;30.30;47.60;;;;;;5080561;28;20192;-79
2022/08/11 10:18:41;;;;;;;102.97;97.97;;;30.10;47.00;;;;;;5081109;28;20284;-79
2022/08/11 10:21:28;;;;;;;111.25;105.35;;;30.00;47.00;;;;;;5080560;28;20634;-78
2022/08/11 10:26:59;;;;;;;131.57;125.28;;;30.90;45.50;;;;;;5082782;28;20189;-79
2022/08/11 10:34:55;;;;;;;135.30;128.70;;;31.30;46.20;;;;;;5081365;28;20642;-79
2022/08/11 10:37:23;;;;;;;154.55;146.88;;;32.00;45.20;;;;;;5078022;28;20220;-80
2022/08/11 10:39:50;;;;;;;134.25;127.85;;;32.20;44.20;;;;;;5080738;28;20205;-79
2022/08/11 10:47:33;;;;;;;95.95;91.28;;;32.20;42.90;;;;;;5081569;28;20682;-79
2022/08/11 10:47:55;;;;;;;112.78;107.32;;;31.90;41.90;;;;;;5081639;28;20201;-78
2022/08/11 10:58:48;;;;;;;89.03;84.70;;;33.00;40.30;;;;;;5081234;28;20232;-80
2022/08/11 11:01:23;;;;;;;91.18;86.82;;;32.10;41.00;;;;;;5096683;28;20207;-79
2022/08/11 11:03:53;;;;;;;82.32;78.43;;;31.80;41.10;;;;;;5079129;28;20205;-79
2022/08/11 11:06:43;;;;;;;83.28;79.25;;;31.70;41.30;;;;;;5058676;28;20182;-79
2022/08/11 11:09:31;;;;;;;85.47;81.32;;;32.00;41.30;;;;;;5069826;28;20182;-80
2022/08/11 11:18:03;;;;;;;94.15;89.50;;;32.40;40.50;;;;;;5061527;28;20297;-80
2022/08/11 11:20:48;;;;;;;97.75;93.05;;;33.00;40.00;;;;;;5061262;28;20194;-80
2022/08/11 11:23:36;;;;;;;88.80;84.60;;;33.30;39.10;;;;;;5078164;28;20197;-80
2022/08/11 11:26:25;;;;;;;89.25;85.07;;;33.50;38.20;;;;;;5077595;28;20174;-81
2022/08/11 11:29:19;;;;;;;85.40;81.35;;;33.40;38.60;;;;;;5077843;28;20213;-81
2022/08/11 11:32:24;;;;;;;99.47;94.78;;;33.60;38.10;;;;;;5066306;28;20187;-77
2022/08/11 11:35:14;;;;;;;79.68;75.85;;;34.40;38.20;;;;;;5054958;28;20201;-79
2022/08/11 11:37:42;;;;;;;86.07;82.05;;;34.70;36.80;;;;;;5064664;28;20222;-78
2022/08/11 11:40:11;;;;;;;83.03;79.00;;;33.90;37.30;;;;;;5069566;28;20838;-79
2022/08/11 11:42:39;;;;;;;96.93;92.28;;;33.50;37.40;;;;;;5052151;28;20210;-79
2022/08/11 11:45:06;;;;;;;103.32;98.30;;;33.30;37.40;;;;;;5058186;28;20210;-80
2022/08/11 11:47:35;;;;;;;86.97;82.88;;;33.70;38.10;;;;;;5080362;28;20221;-79
2022/08/11 11:50:01;;;;;;;92.45;87.72;;;33.50;36.80;;;;;;5070860;28;20185;-80
2022/08/11 11:52:28;;;;;;;91.82;87.43;;;32.90;38.20;;;;;;5063051;28;20241;-80
2022/08/11 11:54:56;;;;;;;100.05;94.97;;;33.40;37.40;;;;;;5063350;28;20179;-80
2022/08/11 12:02:59;;;;;;;48.65;46.35;;;34.60;36.40;;;;;;5065289;28;20182;-79
2022/08/11 12:05:26;;;;;;;66.30;63.10;;;34.00;35.60;;;;;;5063777;28;20256;-79
2022/08/11 12:08:12;;;;;;;47.55;45.25;;;34.10;36.20;;;;;;5065376;28;20206;-79
2022/08/11 12:10:46;;;;;;;59.63;56.78;;;34.40;35.80;;;;;;5065199;28;20186;-79
2022/08/11 12:16:02;;;;;;;67.32;64.07;;;33.80;36.00;;;;;;5063671;28;20347;-78
2022/08/11 12:18:34;;;;;;;45.15;42.75;;;34.10;36.30;;;;;;5070082;28;20221;-78
2022/08/11 12:21:02;;;;;;;47.80;45.00;;;34.20;35.30;;;;;;5081494;28;20549;-78
2022/08/11 12:29:01;;;;;;;26.30;24.85;;;34.30;35.70;;;;;;5059895;28;20670;-78
2022/08/11 12:31:33;;;;;;;23.08;21.75;;;35.00;34.20;;;;;;5061107;28;20261;-78
2022/08/11 12:34:04;;;;;;;25.27;24.02;;;34.60;34.50;;;;;;5060646;28;20535;-78
2022/08/11 12:36:34;;;;;;;16.52;15.63;;;34.60;34.50;;;;;;5062313;28;20186;-79
2022/08/11 12:39:04;;;;;;;17.77;16.77;;;35.00;33.90;;;;;;5061612;28;20214;-79
2022/08/11 12:47:04;;;;;;;4.30;4.00;;;36.50;32.70;;;;;;5059793;28;20263;-79
2022/08/11 12:52:24;;;;;;;3.50;3.38;;;37.00;32.10;;;;;;5059074;28;20185;-78
2022/08/11 12:55:08;;;;;;;4.93;4.63;;;36.40;32.50;;;;;;5061520;28;20210;-79
2022/08/11 13:06:05;;;;;;;3.53;3.30;;;35.70;32.70;;;;;;5061848;28;20182;-79
2022/08/11 13:08:34;;;;;;;3.20;3.00;;;36.60;31.50;;;;;;5058596;28;20209;-78
2022/08/11 13:13:49;;;;;;;3.60;3.35;;;36.10;31.60;;;;;;5066363;28;20213;-79
2022/08/11 13:16:16;;;;;;;6.18;5.88;;;37.30;31.40;;;;;;5064671;28;20220;-79
2022/08/11 13:18:43;;;;;;;8.55;7.93;;;38.60;30.30;;;;;;5077902;28;20202;-78
2022/08/11 13:21:14;;;;;;;6.43;6.13;;;38.50;29.10;;;;;;5077802;28;20188;-78
2022/08/11 13:23:40;;;;;;;6.55;6.25;;;37.20;30.20;;;;;;5080770;28;20208;-78
2022/08/11 13:26:08;;;;;;;6.75;6.22;;;36.90;30.20;;;;;;5078432;28;20235;-78
2022/08/11 13:28:36;;;;;;;5.53;5.32;;;36.10;31.70;;;;;;5080207;28;20202;-78
2022/08/11 13:31:13;;;;;;;2.88;2.78;;;36.00;30.90;;;;;;5080906;28;20182;-78
2022/08/11 13:33:42;;;;;;;3.20;3.10;;;34.90;32.30;;;;;;5079846;28;20304;-79
2022/08/11 13:36:09;;;;;;;3.17;3.08;;;35.30;31.40;;;;;;5080526;28;20205;-78
2022/08/11 13:38:36;;;;;;;3.47;3.28;;;35.60;31.30;;;;;;5059476;23;20606;-76
2022/08/11 13:41:36;;;;;;;6.00;5.38;;;35.90;31.00;;;;;;4969282;28;20239;-76
2022/08/11 13:43:51;;;;;;;8.40;7.90;;;36.70;30.00;;;;;;4970561;28;20197;-77
2022/08/11 13:46:19;;;;;;;6.63;6.28;;;37.80;29.80;;;;;;4969289;28;20191;-75
2022/08/11 13:48:46;;;;;;;8.48;8.07;;;38.50;28.70;;;;;;4970688;28;20207;-79
2022/08/11 13:51:34;;;;;;;9.52;9.00;;;38.10;29.10;;;;;;4972483;28;20185;-77
2022/08/11 13:54:09;;;;;;;9.15;8.68;;;37.60;29.50;;;;;;4970877;28;20224;-76
2022/08/11 13:56:40;;;;;;;7.78;7.30;;;37.60;29.60;;;;;;4974484;28;20230;-75
2022/08/11 13:59:09;;;;;;;7.32;6.65;;;37.70;29.30;;;;;;4970998;28;20205;-76
2022/08/11 14:01:42;;;;;;;7.60;7.30;;;38.10;28.70;;;;;;4969999;28;20712;-76
2022/08/11 14:04:11;;;;;;;6.20;5.93;;;36.20;30.10;;;;;;4971536;28;20185;-76
2022/08/11 14:06:43;;;;;;;5.07;4.85;;;35.50;30.60;;;;;;4970628;28;20177;-76
2022/08/11 14:09:11;;;;;;;6.75;6.40;;;35.50;30.90;;;;;;4970354;28;20259;-76
2022/08/11 14:14:32;;;;;;;12.02;11.05;;;36.60;29.90;;;;;;5073597;28;20212;-76
2022/08/11 14:17:03;;;;;;;9.02;8.40;;;36.70;29.70;;;;;;5033363;28;20192;-76
2022/08/11 14:19:34;;;;;;;10.95;10.23;;;36.60;29.90;;;;;;4981942;28;20217;-77
2022/08/11 14:22:08;;;;;;;8.75;8.30;;;37.00;29.60;;;;;;4969563;28;20280;-76
2022/08/11 14:24:38;;;;;;;8.15;7.78;;;37.50;29.20;;;;;;4969340;28;20184;-76
2022/08/11 14:27:06;;;;;;;7.88;7.47;;;37.00;28.80;;;;;;4968432;28;20182;-76
2022/08/11 14:29:37;;;;;;;8.50;8.13;;;36.80;29.30;;;;;;4972884;28;20258;-78
2022/08/11 14:32:06;;;;;;;7.68;7.13;;;36.00;30.00;;;;;;4979821;28;20185;-75
2022/08/11 14:34:35;;;;;;;9.43;8.93;;;36.10;29.90;;;;;;4970168;28;20213;-76
2022/08/11 14:37:11;;;;;;;9.32;8.82;;;36.90;29.40;;;;;;4972799;28;20625;-78
2022/08/11 14:39:45;;;;;;;8.43;8.02;;;36.90;29.10;;;;;;4970737;28;20422;-76
2022/08/11 14:47:58;;;;;;;6.40;6.03;;;37.60;28.70;;;;;;4970565;28;20579;-77
2022/08/11 14:50:26;;;;;;;5.93;5.72;;;37.50;29.10;;;;;;4983898;28;20258;-75
2022/08/11 14:53:03;;;;;;;9.15;7.22;;;37.40;29.00;;;;;;4976187;28;20189;-77
2022/08/11 14:58:22;;;;;;;8.43;8.00;;;36.40;29.60;;;;;;4969006;28;20200;-77
2022/08/11 15:00:53;;;;;;;7.35;6.95;;;37.10;29.70;;;;;;4970207;28;20189;-77
2022/08/11 15:03:21;;;;;;;7.22;6.93;;;37.80;29.00;;;;;;4969359;28;20185;-76
2022/08/11 15:05:50;;;;;;;5.43;5.07;;;38.00;28.90;;;;;;4969494;28;20277;-76
2022/08/11 15:08:18;;;;;;;6.68;6.30;;;38.10;28.50;;;;;;4969787;28;20260;-77
2022/08/11 15:10:47;;;;;;;4.85;4.65;;;38.10;28.70;;;;;;4970540;28;20183;-77
2022/08/11 15:13:17;;;;;;;5.35;5.05;;;37.70;28.80;;;;;;4970127;28;20188;-77
2022/08/11 15:18:31;;;;;;;7.78;7.38;;;36.10;29.80;;;;;;4970201;28;20204;-77
2022/08/11 15:37:43;;;;;;;3.95;3.25;;;34.40;31.00;;;;;;4972785;28;20204;-76
2022/08/11 15:46:00;;;;;;;5.10;4.78;;;35.40;30.30;;;;;;4974435;28;20257;-78
2022/08/11 15:48:32;;;;;;;4.97;4.63;;;35.90;29.70;;;;;;4973695;28;20204;-79
2022/08/11 15:51:09;;;;;;;4.40;4.10;;;35.20;30.00;;;;;;4974691;28;20227;-77
2022/08/11 15:53:49;;;;;;;3.47;3.33;;;35.10;30.50;;;;;;4972284;28;20180;-76
2022/08/11 15:56:16;;;;;;;4.00;3.80;;;35.00;30.40;;;;;;4972874;28;20240;-78
2022/08/11 16:04:25;;;;;;;4.15;3.85;;;34.30;30.90;;;;;;4972889;28;20247;-77
2022/08/11 16:07:10;;;;;;;4.30;4.05;;;33.80;31.70;;;;;;4971324;28;20219;-75
2022/08/11 16:09:45;;;;;;;4.45;3.70;;;33.90;31.80;;;;;;4973531;28;20750;-77
2022/08/11 16:12:14;;;;;;;4.20;3.88;;;34.40;31.60;;;;;;4974154;28;20192;-77
2022/08/11 16:17:33;;;;;;;3.53;3.30;;;35.10;30.80;;;;;;4973371;28;20272;-77
2022/08/11 16:20:01;;;;;;;3.63;3.38;;;34.20;31.10;;;;;;4973565;28;20236;-77
2022/08/11 16:22:42;;;;;;;4.32;4.13;;;33.70;31.90;;;;;;4988579;28;20189;-77
2022/08/11 16:25:17;;;;;;;6.45;6.07;;;33.70;32.20;;;;;;4977183;28;20254;-77
2022/08/11 16:27:48;;;;;;;7.45;6.95;;;33.10;32.50;;;;;;4975258;28;20189;-78
2022/08/11 16:30:14;;;;;;;11.65;10.80;;;32.50;33.30;;;;;;4973928;28;20650;-77
2022/08/11 16:32:45;;;;;;;21.88;20.60;;;31.80;33.80;;;;;;5015471;28;20188;-76
2022/08/11 16:40:53;;;;;;;111.72;106.32;;;30.30;35.80;;;;;;5051216;28;20182;-79
2022/08/11 16:48:54;;;;;;;145.20;138.38;;;29.60;37.20;;;;;;4971446;28;20210;-74
2022/08/11 16:51:21;;;;;;;139.60;132.77;;;29.40;36.60;;;;;;4974880;28;20216;-75
2022/08/11 16:53:49;;;;;;;139.60;132.70;;;29.30;37.20;;;;;;5013905;28;20321;-73
2022/08/11 16:56:31;;;;;;;148.00;140.93;;;29.20;37.40;;;;;;5053309;28;20178;-76
2022/08/11 16:59:13;;;;;;;121.75;115.78;;;29.20;37.00;;;;;;5052234;28;20199;-76
2022/08/11 17:01:56;;;;;;;113.53;108.13;;;29.30;37.60;;;;;;5053704;28;20616;-74
2022/08/11 17:13:31;;;;;;;81.68;77.63;;;28.80;37.80;;;;;;4970469;28;20204;-76
2022/08/11 17:16:07;;;;;;;79.55;75.47;;;28.80;38.00;;;;;;4971667;28;20607;-76
2022/08/11 17:18:47;;;;;;;76.50;72.75;;;28.70;38.10;;;;;;4968706;28;20205;-74
2022/08/11 17:21:21;;;;;;;75.28;71.43;;;28.70;38.20;;;;;;4969596;28;20187;-76
2022/08/11 17:23:53;;;;;;;68.20;64.80;;;28.60;38.10;;;;;;4997041;28;20209;-74
2022/08/11 17:26:24;;;;;;;64.05;60.92;;;28.60;38.40;;;;;;5050913;28;20193;-75
2022/08/11 17:28:59;;;;;;;56.83;54.13;;;28.60;38.70;;;;;;5050463;28;20210;-74
2022/08/11 17:36:59;;;;;;;48.78;46.20;;;28.40;39.30;;;;;;5048976;28;20182;-69
2022/08/11 17:39:28;;;;;;;39.85;37.97;;;28.30;39.70;;;;;;4970461;28;20630;-71
2022/08/11 17:50:12;;;;;;;39.53;37.42;;;28.00;40.30;;;;;;4969181;28;20192;-73
2022/08/11 18:00:59;;;;;;;39.28;36.97;;;27.70;40.80;;;;;;5052081;28;20304;-73
2022/08/11 18:03:31;;;;;;;43.72;41.00;;;27.60;41.30;;;;;;5052414;28;20644;-74
2022/08/11 18:06:02;;;;;;;51.80;48.95;;;27.60;41.50;;;;;;5010722;28;20673;-71
